Saturday, February 28, 2015
19:18 UTC
  |  Log In   |  Register Free
Airport Search:

Ormond Beach Municipal Airport
(KOMN)

FAA data valid effective January 08, 2015 - March 05, 2015 (unless otherwise noted).

 
 
 
 
 
 
 
 
 
 
 
 
 
 

Current Aviation Weather for Ormond Beach Municipal Airport (KOMN)

The most recent METAR observation for KOMN was updated at: 1914
METAR Summary (Translated METAR)
KOMN
281850Z 08005KT 3SM -RA BKN024 OVC043 17/15 A3036
KDAB
281853Z 08007KT 5SM -RA SCT033 BKN046 OVC110 19/16 A3035 RMK AO2 SLP278 P0003 T01890161 $
(7.8 nm SE from KOMN)
KFIN
281850Z 06005KT 4SM DZ OVC032 17/16 A3036
(11.1 nm NW from KOMN)
TAF Summary (Translated TAF)
KDAB
(7.8 nm SE from KOMN)
281726Z 2818/0118 10012G17KT P6SM -RA BKN025 OVC040 TEMPO 2820/2824 3SM -RA BR BKN015 OVC030 FM010100 06010KT P6SM SCT007 BKN015 OVC030 TEMPO 0106/0108 BKN005 OVC010 FM010800 07004KT 3SM BR OVC005 FM011400 13006KT P6SM SCT006 BKN020
  Airport Weather Conditions for KOMN

 Current Weather at OMN
63° F
Light Rain
East winds at 5.8 mph
OMN NOAA Radar

Pressure: 30.36 in
Humidity: 88%
Wind: East at 5.8 MPH (5 KT)
Dew Point: 59.0°F
Visibility: 3.00 mi


Airport Weather Forecast for KOMN

Translated METAR and TAF for KOMN
Translated METAR for KOMN (1918 UTC 28 February 2015)
found at http://aviationweather.gov/adds/metars/
 
METAR text: KOMN 281850Z 08005KT 3SM -RA BKN024 OVC043 17/15 A3036
Conditions at: KOMN (ORMOND BEACH VOR, FL, US) observed 1850 UTC 28 February 2015
Temperature: 17.0°C (63°F)
Dewpoint: 15.0°C (59°F) [RH = 88%]
Pressure (altimeter): 30.36 inches Hg (1028.2 mb)
Winds: from the E (80 degrees) at 6 MPH (5 knots; 2.6 m/s)
Visibility: 3 miles (5 km)
Ceiling: 2400 feet AGL
Clouds: broken clouds at 2400 feet AGL
overcast cloud deck at 4300 feet AGL
Weather: -RA  (light rain)
Translated TAF for KOMN

There is no translated TAF available for this airport

Find All Airport Services Find A Hotel Find A Rental Car Find A Golf Course Find A Restaurant $100 Hamburger



FBO's on the Field
FBO Company Facility Photos Services Transportation Aviation Fuel Prices: Prices include tax
Catering Weather Repair Courtesy Rental Type 100LL JetA JetA+ MOGAS 8087
 
Sunrise Aviation

Currently rated 1.9 by 3 people
FS:Shell
Last Updated: Feb-25
Login to update fuel prices
SS:
Contact Sunrise AviationMore FBO Information
 
Add another FBO Facility Photos Catering Weather Repair Courtesy Rental Type 100LL JetA JetA+ MOGAS 8087
Services Transportation Aviation Fuel Prices: Prices include tax


model-print
model-print
model-print
model-print